createdAt,value
2018-04-24T00:01:09.613Z,91.00
2018-04-24T00:03:41.955Z,90.90
2018-04-24T00:06:14.893Z,90.80
2018-04-24T00:08:47.174Z,90.80
2018-04-24T00:11:19.353Z,90.90
2018-04-24T00:13:51.574Z,90.90
2018-04-24T00:16:23.733Z,91.10
2018-04-24T00:18:55.993Z,91.00
2018-04-24T00:21:28.194Z,91.00
2018-04-24T00:24:00.373Z,90.90
2018-04-24T00:26:32.533Z,90.90
2018-04-24T00:29:05.034Z,90.80
2018-04-24T00:31:37.273Z,90.90
2018-04-24T00:34:09.473Z,91.10
2018-04-24T00:36:42.153Z,91.20
2018-04-24T00:39:14.493Z,91.10
2018-04-24T00:41:46.697Z,91.30
2018-04-24T00:44:18.915Z,91.30
2018-04-24T00:46:51.113Z,91.20
2018-04-24T00:49:23.493Z,91.20
2018-04-24T00:51:55.673Z,91.10
2018-04-24T00:54:27.919Z,91.20
2018-04-24T00:57:00.133Z,91.30
2018-04-24T00:59:32.196Z,91.20
2018-04-24T01:02:04.595Z,91.10
2018-04-24T01:04:36.815Z,91.10
2018-04-24T01:07:09.835Z,91.10
2018-04-24T01:09:41.973Z,91.10
2018-04-24T01:12:14.233Z,91.10
2018-04-24T01:14:46.915Z,91.30
2018-04-24T01:17:19.034Z,91.50
2018-04-24T01:19:51.675Z,91.70
2018-04-24T01:22:23.894Z,92.00
2018-04-24T01:24:56.554Z,92.40
2018-04-24T01:27:28.775Z,92.50
2018-04-24T01:30:00.936Z,92.80
2018-04-24T01:32:33.597Z,93.00
2018-04-24T01:35:05.816Z,93.20
2018-04-24T01:37:38.075Z,93.30
2018-04-24T01:40:10.975Z,93.40
2018-04-24T01:42:43.195Z,93.70
2018-04-24T01:45:10.315Z,94.00
2018-04-24T01:47:42.635Z,94.20
2018-04-24T01:50:15.676Z,94.30
2018-04-24T01:52:58.221Z,94.50
2018-04-24T01:55:37.356Z,94.60
2018-04-24T01:58:21.226Z,94.70
2018-04-24T02:01:04.431Z,94.90
2018-04-24T02:03:48.464Z,94.90
2018-04-24T02:06:32.303Z,95.00
2018-04-24T02:09:16.144Z,95.10
2018-04-24T02:11:57.745Z,95.20
2018-04-24T02:14:31.063Z,95.20
2018-04-24T02:17:08.526Z,95.30
2018-04-24T02:19:45.435Z,95.30
2018-04-24T02:22:23.032Z,95.30
2018-04-24T02:25:00.956Z,95.30
2018-04-24T02:27:39.942Z,95.30
2018-04-24T02:30:12.703Z,95.30
2018-04-24T02:32:52.290Z,95.30
2018-04-24T02:35:27.490Z,95.30
2018-04-24T02:38:05.760Z,95.40
2018-04-24T02:40:43.897Z,95.40
2018-04-24T02:43:22.866Z,95.50
2018-04-24T02:46:00.514Z,95.40
2018-04-24T02:48:35.255Z,95.40
2018-04-24T02:51:12.319Z,95.30
2018-04-24T02:53:50.972Z,95.20
2018-04-24T02:56:29.625Z,95.20
2018-04-24T02:59:07.921Z,95.20
2018-04-24T03:01:40.674Z,95.30
2018-04-24T03:04:13.535Z,95.50
2018-04-24T03:06:45.755Z,95.50
2018-04-24T03:09:17.893Z,95.40
2018-04-24T03:11:50.344Z,95.40
2018-04-24T03:14:23.310Z,95.50
2018-04-24T03:16:55.704Z,95.50
2018-04-24T03:19:27.946Z,95.50
2018-04-24T03:22:00.737Z,95.40
2018-04-24T03:24:32.945Z,95.30
2018-04-24T03:27:05.885Z,95.20
2018-04-24T03:29:38.126Z,95.20
2018-04-24T03:32:10.446Z,95.10
2018-04-24T03:34:42.786Z,94.90
2018-04-24T03:37:15.786Z,94.80
2018-04-24T03:39:47.968Z,94.80
2018-04-24T03:42:20.206Z,94.70
2018-04-24T03:44:52.366Z,94.70
2018-04-24T03:47:24.506Z,94.70
2018-04-24T03:49:56.686Z,94.70
2018-04-24T03:52:28.966Z,94.60
2018-04-24T03:55:01.227Z,94.70
2018-04-24T03:57:33.486Z,94.80
2018-04-24T04:00:05.786Z,94.80
2018-04-24T04:02:37.966Z,95.00
2018-04-24T04:05:10.546Z,95.10
2018-04-24T04:07:37.779Z,95.20
2018-04-24T04:10:10.009Z,95.10
2018-04-24T04:12:42.926Z,95.20
2018-04-24T04:15:15.106Z,95.20
2018-04-24T04:18:05.447Z,95.20
2018-04-24T04:21:02.747Z,95.20
2018-04-24T04:23:53.208Z,95.30
2018-04-24T04:26:25.434Z,95.40
2018-04-24T04:28:57.744Z,95.40
2018-04-24T04:31:29.987Z,95.50
2018-04-24T04:34:02.209Z,95.40
2018-04-24T04:36:34.428Z,95.40
2018-04-24T04:39:06.659Z,95.60
2018-04-24T04:41:38.848Z,95.40
2018-04-24T04:44:11.130Z,95.40
2018-04-24T04:46:43.348Z,95.40
2018-04-24T04:49:15.523Z,95.40
2018-04-24T04:51:47.768Z,95.30
2018-04-24T04:54:20.018Z,95.30
2018-04-24T04:56:53.208Z,95.20
2018-04-24T04:59:25.449Z,95.20
2018-04-24T05:01:57.777Z,95.20
2018-04-24T05:04:25.769Z,95.10
2018-04-24T05:06:58.129Z,95.10
2018-04-24T05:09:30.371Z,95.00
2018-04-24T05:12:02.646Z,94.90
2018-04-24T05:14:35.028Z,94.90
2018-04-24T05:17:07.211Z,94.90
2018-04-24T05:19:39.388Z,94.80
2018-04-24T05:22:11.548Z,94.80
2018-04-24T05:24:43.829Z,94.80
2018-04-24T05:27:16.312Z,94.80
2018-04-24T05:29:48.605Z,94.80
2018-04-24T05:32:20.749Z,94.80
2018-04-24T05:34:52.948Z,94.70
2018-04-24T05:37:25.129Z,94.80
2018-04-24T05:39:57.411Z,94.80
2018-04-24T05:42:29.648Z,94.90
2018-04-24T05:45:01.940Z,95.00
2018-04-24T05:47:34.868Z,95.00
2018-04-24T05:50:07.087Z,95.00
2018-04-24T05:52:39.288Z,95.00
2018-04-24T05:55:11.507Z,95.10
2018-04-24T05:57:43.717Z,95.10
2018-04-24T06:00:16.407Z,95.20
2018-04-24T06:02:48.593Z,95.20
2018-04-24T06:05:21.049Z,95.10
2018-04-24T06:07:53.356Z,95.00
2018-04-24T06:10:26.820Z,95.10
2018-04-24T06:12:58.976Z,95.10
2018-04-24T06:15:31.176Z,95.20
2018-04-24T06:18:03.403Z,95.10
2018-04-24T06:20:35.675Z,95.20
2018-04-24T06:23:07.896Z,95.10
2018-04-24T06:25:40.116Z,95.10
2018-04-24T06:28:12.316Z,95.00
2018-04-24T06:30:44.797Z,95.10
2018-04-24T06:33:17.036Z,95.10
2018-04-24T06:35:49.560Z,95.10
2018-04-24T06:38:21.657Z,95.10
2018-04-24T06:40:53.899Z,95.30
2018-04-24T06:43:26.786Z,95.20
2018-04-24T06:45:59.817Z,95.30
2018-04-24T06:48:32.017Z,95.30
2018-04-24T06:51:04.256Z,95.30
2018-04-24T06:53:36.955Z,95.20
2018-04-24T06:56:09.196Z,95.20
2018-04-24T06:58:41.431Z,95.10
2018-04-24T07:01:13.665Z,95.20
2018-04-24T07:03:45.905Z,95.40
2018-04-24T07:06:18.169Z,95.00
2018-04-24T07:08:50.300Z,94.80
2018-04-24T07:11:22.585Z,95.20
2018-04-24T07:13:55.545Z,93.70
2018-04-24T07:16:27.705Z,93.60
2018-04-24T07:18:59.888Z,93.00
2018-04-24T07:21:32.105Z,92.40
2018-04-24T07:24:04.345Z,92.10
2018-04-24T07:26:36.605Z,92.70
2018-04-24T07:29:08.865Z,92.50
2018-04-24T07:31:41.045Z,91.90
2018-04-24T07:34:13.285Z,91.70
2018-04-24T07:36:45.486Z,92.10
2018-04-24T07:39:17.709Z,91.80
2018-04-24T07:41:49.868Z,90.90
2018-04-24T07:44:22.445Z,91.60
2018-04-24T07:46:55.039Z,90.80
2018-04-24T07:49:27.586Z,90.50
2018-04-24T07:51:59.805Z,87.40
2018-04-24T07:54:32.686Z,90.50
2018-04-24T07:57:04.905Z,90.50
2018-04-24T07:59:37.085Z,85.70
2018-04-24T08:02:04.446Z,86.80
2018-04-24T08:04:36.665Z,85.20
2018-04-24T08:07:08.928Z,80.30
2018-04-24T08:09:41.864Z,82.50
2018-04-24T08:12:14.085Z,82.60
2018-04-24T08:14:46.326Z,79.60
2018-04-24T08:17:18.867Z,78.80
2018-04-24T08:19:51.086Z,79.80
2018-04-24T08:22:23.265Z,84.10
2018-04-24T08:24:55.526Z,81.90
2018-04-24T08:27:27.705Z,80.70
2018-04-24T08:29:59.945Z,82.70
2018-04-24T08:32:32.105Z,82.80
2018-04-24T08:35:04.407Z,80.90
2018-04-24T08:37:36.604Z,79.40
2018-04-24T08:40:08.904Z,80.60
2018-04-24T08:42:41.085Z,80.90
2018-04-24T08:45:13.625Z,82.60
2018-04-24T08:47:45.925Z,79.70
2018-04-24T08:50:18.125Z,82.70
2018-04-24T08:52:50.226Z,79.40
2018-04-24T08:55:22.526Z,78.00
2018-04-24T08:57:55.425Z,78.90
2018-04-24T09:00:27.625Z,78.90
2018-04-24T09:02:59.741Z,79.20
2018-04-24T09:05:31.985Z,78.00
2018-04-24T09:08:04.192Z,77.20
2018-04-24T09:10:36.428Z,78.50
2018-04-24T09:13:08.665Z,80.40
2018-04-24T09:15:40.908Z,78.10
2018-04-24T09:18:13.144Z,77.40
2018-04-24T09:20:45.331Z,71.30
2018-04-24T09:23:17.565Z,70.00
2018-04-24T09:25:49.710Z,76.10
2018-04-24T09:28:21.863Z,73.00
2018-04-24T09:30:54.064Z,72.00
2018-04-24T09:33:26.293Z,70.30
2018-04-24T09:35:58.443Z,71.50
2018-04-24T09:38:30.782Z,68.00
2018-04-24T09:41:03.083Z,72.00
2018-04-24T09:43:35.224Z,70.80
2018-04-24T09:46:07.424Z,68.90
2018-04-24T09:48:39.865Z,69.40
2018-04-24T09:51:12.221Z,71.00
2018-04-24T09:53:44.803Z,68.00
2018-04-24T09:56:17.022Z,70.90
2018-04-24T09:58:49.535Z,72.40
2018-04-24T10:01:21.932Z,73.20
2018-04-24T10:03:54.131Z,67.90
2018-04-24T10:06:26.376Z,70.90
2018-04-24T10:08:58.590Z,68.40
2018-04-24T10:11:30.791Z,67.40
2018-04-24T10:14:03.112Z,65.90
2018-04-24T10:16:36.132Z,68.70
2018-04-24T10:19:08.712Z,68.30
2018-04-24T10:21:40.893Z,61.10
2018-04-24T10:24:13.193Z,62.10
2018-04-24T10:26:45.332Z,61.50
2018-04-24T10:29:17.464Z,62.30
2018-04-24T10:31:49.774Z,60.40
2018-04-24T10:34:21.972Z,63.50
2018-04-24T10:36:54.212Z,61.20
2018-04-24T10:39:26.294Z,61.10
2018-04-24T10:41:58.572Z,60.10
2018-04-24T10:44:30.732Z,64.70
2018-04-24T10:47:02.995Z,60.80
2018-04-24T10:49:35.444Z,63.80
2018-04-24T10:52:07.572Z,60.90
2018-04-24T10:54:39.874Z,59.90
2018-04-24T10:57:12.013Z,58.30
2018-04-24T10:59:44.134Z,60.40
2018-04-24T11:02:16.233Z,56.20
2018-04-24T11:04:48.692Z,59.10
2018-04-24T11:07:20.912Z,61.40
2018-04-24T11:09:53.112Z,60.20
2018-04-24T11:12:25.333Z,60.30
2018-04-24T11:14:58.332Z,58.60
2018-04-24T11:17:30.594Z,58.60
2018-04-24T11:20:02.894Z,65.90
2018-04-24T11:22:35.883Z,57.30
2018-04-24T11:25:08.171Z,57.30
2018-04-24T11:27:41.293Z,60.30
2018-04-24T11:30:13.551Z,60.30
2018-04-24T11:32:45.774Z,62.00
2018-04-24T11:35:17.954Z,59.40
2018-04-24T11:37:50.194Z,58.10
2018-04-24T11:40:22.795Z,57.00
2018-04-24T11:42:54.994Z,59.70
2018-04-24T11:45:27.434Z,58.80
2018-04-24T11:48:00.473Z,58.00
2018-04-24T11:50:32.733Z,57.90
2018-04-24T11:53:04.747Z,56.00
2018-04-24T11:55:37.054Z,57.00
2018-04-24T11:58:09.218Z,55.10
2018-04-24T12:00:41.454Z,56.30
2018-04-24T12:03:13.510Z,57.90
2018-04-24T12:05:45.813Z,56.70
2018-04-24T12:08:18.093Z,57.50
2018-04-24T12:10:50.494Z,57.40
2018-04-24T12:13:22.673Z,57.70
2018-04-24T12:15:54.873Z,59.10
2018-04-24T12:18:27.413Z,57.70
2018-04-24T12:20:59.653Z,60.00
2018-04-24T12:23:32.532Z,57.40
2018-04-24T12:26:04.733Z,59.50
2018-04-24T12:28:36.952Z,59.90
2018-04-24T12:31:09.892Z,58.00
2018-04-24T12:33:42.133Z,57.90
2018-04-24T12:36:14.355Z,56.80
2018-04-24T12:38:47.434Z,57.50
2018-04-24T12:41:19.615Z,57.50
2018-04-24T12:43:51.874Z,57.40
2018-04-24T12:46:24.174Z,56.40
2018-04-24T12:48:56.494Z,60.00
2018-04-24T12:51:28.734Z,64.50
2018-04-24T12:54:01.055Z,56.50
2018-04-24T12:56:33.274Z,61.40
2018-04-24T12:59:13.423Z,58.60
2018-04-24T13:01:55.836Z,58.20
2018-04-24T13:04:38.820Z,54.30
2018-04-24T13:07:22.595Z,55.60
2018-04-24T13:09:54.956Z,56.10
2018-04-24T13:12:27.915Z,57.30
2018-04-24T13:15:00.166Z,57.20
2018-04-24T13:17:32.407Z,58.00
2018-04-24T13:20:04.987Z,60.00
2018-04-24T13:22:37.207Z,58.30
2018-04-24T13:25:10.531Z,55.90
2018-04-24T13:27:42.772Z,56.00
2018-04-24T13:30:15.247Z,57.90
2018-04-24T13:32:48.126Z,57.60
2018-04-24T13:35:21.679Z,57.30
2018-04-24T13:37:54.658Z,54.50
2018-04-24T13:40:28.453Z,57.00
2018-04-24T13:43:00.699Z,56.90
2018-04-24T13:45:32.938Z,56.40
2018-04-24T13:48:05.129Z,51.20
2018-04-24T13:50:38.275Z,52.80
2018-04-24T13:53:10.508Z,52.80
2018-04-24T13:55:37.869Z,51.50
2018-04-24T13:58:10.108Z,51.40
2018-04-24T14:00:43.068Z,49.70
2018-04-24T14:03:15.308Z,49.60
2018-04-24T14:05:48.267Z,50.80
2018-04-24T14:08:20.888Z,50.80
2018-04-24T14:10:53.129Z,51.50
2018-04-24T14:13:25.407Z,50.50
2018-04-24T14:15:57.607Z,49.60
2018-04-24T14:18:30.629Z,49.70
2018-04-24T14:21:02.948Z,49.70
2018-04-24T14:23:35.289Z,49.90
2018-04-24T14:26:07.748Z,49.90
2018-04-24T14:28:40.765Z,51.20
2018-04-24T14:31:13.028Z,51.20
2018-04-24T14:33:46.093Z,50.10
2018-04-24T14:36:19.464Z,50.80
2018-04-24T14:38:51.748Z,50.70
2018-04-24T14:41:24.645Z,51.00
2018-04-24T14:44:00.256Z,51.00
2018-04-24T14:46:32.589Z,50.50
2018-04-24T14:49:04.989Z,51.00
2018-04-24T14:51:37.233Z,50.50
2018-04-24T14:54:09.456Z,50.80
2018-04-24T14:56:41.800Z,49.50
2018-04-24T14:59:13.962Z,50.60
2018-04-24T15:01:46.127Z,46.40
2018-04-24T15:04:19.708Z,49.80
2018-04-24T15:06:54.770Z,50.20
2018-04-24T15:09:27.847Z,50.90
2018-04-24T15:12:00.686Z,51.60
2018-04-24T15:14:32.952Z,52.10
2018-04-24T15:17:07.107Z,49.90
2018-04-24T15:19:40.464Z,50.60
2018-04-24T15:22:12.885Z,50.40
2018-04-24T15:24:45.045Z,52.00
2018-04-24T15:27:17.245Z,48.40
2018-04-24T15:29:50.685Z,48.00
2018-04-24T15:32:22.925Z,48.00
2018-04-24T15:34:55.997Z,50.70
2018-04-24T15:37:28.344Z,50.70
2018-04-24T15:40:01.851Z,48.20
2018-04-24T15:42:33.985Z,48.20
2018-04-24T15:45:06.247Z,49.20
2018-04-24T15:47:38.379Z,50.60
2018-04-24T15:50:11.325Z,51.50
2018-04-24T15:52:43.404Z,51.50
2018-04-24T15:55:15.644Z,48.00
2018-04-24T15:57:48.844Z,48.60
2018-04-24T16:00:21.063Z,48.60
2018-04-24T16:02:54.036Z,48.60
2018-04-24T16:05:26.987Z,49.90
2018-04-24T16:07:59.203Z,49.90
2018-04-24T16:10:32.164Z,49.20
2018-04-24T16:14:42.424Z,49.40
2018-04-24T16:17:09.303Z,48.60
2018-04-24T16:19:37.282Z,48.40
2018-04-24T16:22:04.220Z,47.90
2018-04-24T16:24:31.481Z,49.30
2018-04-24T16:26:58.440Z,48.60
2018-04-24T16:29:25.381Z,49.20
2018-04-24T16:31:52.381Z,48.20
2018-04-24T16:34:19.460Z,50.10
2018-04-24T16:36:46.540Z,47.30
2018-04-24T16:39:14.381Z,49.10
2018-04-24T16:41:41.383Z,48.80
2018-04-24T16:44:08.459Z,48.50
2018-04-24T16:46:35.617Z,48.80
2018-04-24T16:49:02.606Z,49.70
2018-04-24T16:51:31.381Z,49.30
2018-04-24T16:53:59.120Z,49.60
2018-04-24T16:56:26.161Z,49.60
2018-04-24T16:58:53.221Z,50.80
2018-04-24T17:01:20.505Z,49.80
2018-04-24T17:03:48.261Z,50.60
2018-04-24T17:06:16.066Z,49.70
2018-04-24T17:08:43.182Z,49.70
2018-04-24T17:11:10.242Z,50.10
2018-04-24T17:13:37.339Z,50.60
2018-04-24T17:16:04.440Z,51.10
2018-04-24T17:18:31.480Z,52.00
2018-04-24T17:20:58.459Z,51.70
2018-04-24T17:23:25.483Z,53.40
2018-04-24T17:25:52.520Z,53.50
2018-04-24T17:28:19.559Z,52.30
2018-04-24T17:30:46.817Z,53.20
2018-04-24T17:33:14.173Z,53.40
2018-04-24T17:35:41.334Z,54.50
2018-04-24T17:38:08.411Z,54.60
2018-04-24T17:40:35.552Z,55.60
2018-04-24T17:43:02.652Z,55.30
2018-04-24T17:45:30.474Z,56.40
2018-04-24T17:47:57.452Z,56.30
2018-04-24T17:50:25.313Z,56.70
2018-04-24T17:52:53.132Z,57.70
2018-04-24T17:55:20.173Z,57.60
2018-04-24T17:57:47.273Z,58.40
2018-04-24T18:00:14.194Z,59.10
2018-04-24T18:02:41.393Z,60.90
2018-04-24T18:05:08.861Z,61.00
2018-04-24T18:07:35.995Z,61.40
2018-04-24T18:10:04.027Z,62.60
2018-04-24T18:12:31.107Z,62.50
2018-04-24T18:14:58.886Z,65.10
2018-04-24T18:17:26.247Z,65.00
2018-04-24T18:19:53.287Z,66.00
2018-04-24T18:22:20.668Z,66.80
2018-04-24T18:24:47.888Z,67.40
2018-04-24T18:27:15.767Z,69.30
2018-04-24T18:29:42.919Z,69.30
2018-04-24T18:32:09.947Z,69.40
2018-04-24T18:34:37.939Z,70.90
2018-04-24T18:37:05.025Z,70.80
2018-04-24T18:39:41.467Z,71.30
2018-04-24T18:42:19.831Z,71.90
2018-04-24T18:44:57.275Z,71.90
2018-04-24T18:47:33.110Z,72.40
2018-04-24T18:50:11.191Z,72.70
2018-04-24T18:52:38.610Z,73.20
2018-04-24T18:55:15.458Z,73.80
2018-04-24T18:57:48.601Z,74.80
2018-04-24T19:00:25.589Z,75.30
2018-04-24T19:03:01.115Z,75.90
2018-04-24T19:05:29.052Z,76.30
2018-04-24T19:08:03.188Z,76.70
2018-04-24T19:10:40.645Z,77.30
2018-04-24T19:13:15.872Z,78.10
2018-04-24T19:15:52.302Z,78.60
2018-04-24T19:18:25.264Z,78.70
2018-04-24T19:20:52.303Z,79.70
2018-04-24T19:23:19.283Z,79.70
2018-04-24T19:25:47.698Z,80.30
2018-04-24T19:28:15.127Z,80.20
2018-04-24T19:30:42.216Z,80.30
2018-04-24T19:33:09.675Z,80.40
2018-04-24T19:35:36.717Z,80.20
2018-04-24T19:38:03.937Z,80.20
2018-04-24T19:40:37.608Z,79.90
2018-04-24T19:43:04.999Z,79.90
2018-04-24T19:45:32.802Z,81.30
2018-04-24T19:47:59.917Z,81.30
2018-04-24T19:50:27.297Z,81.90
2018-04-24T19:52:54.594Z,82.00
2018-04-24T19:55:25.737Z,82.60
2018-04-24T19:57:52.903Z,83.10
2018-04-24T20:00:20.716Z,83.10
2018-04-24T20:02:47.796Z,83.10
2018-04-24T20:05:14.736Z,83.70
2018-04-24T20:07:41.756Z,83.80
2018-04-24T20:10:08.896Z,84.50
2018-04-24T20:12:35.883Z,84.80
2018-04-24T20:15:02.965Z,85.70
2018-04-24T20:17:29.985Z,86.50
2018-04-24T20:19:56.982Z,86.00
2018-04-24T20:22:23.982Z,86.60
2018-04-24T20:24:51.883Z,86.30
2018-04-24T20:27:18.922Z,86.20
2018-04-24T20:29:45.922Z,86.20
2018-04-24T20:32:12.944Z,86.80
2018-04-24T20:34:40.042Z,86.90
2018-04-24T20:37:07.802Z,86.90
2018-04-24T20:39:35.621Z,86.70
2018-04-24T20:42:02.885Z,86.70
2018-04-24T20:44:29.882Z,87.20
2018-04-24T20:46:56.842Z,87.10
2018-04-24T20:49:23.782Z,87.20
2018-04-24T20:51:50.941Z,88.00
2018-04-24T20:54:18.281Z,88.20
2018-04-24T20:56:45.301Z,88.70
2018-04-24T20:59:13.142Z,88.90
2018-04-24T21:01:40.205Z,88.90
2018-04-24T21:04:07.242Z,89.00
2018-04-24T21:06:34.210Z,89.00
2018-04-24T21:09:01.782Z,88.40
2018-04-24T21:11:29.563Z,89.50
2018-04-24T21:13:57.041Z,89.00
2018-04-24T21:16:24.022Z,88.30
2018-04-24T21:18:51.061Z,88.00
2018-04-24T21:21:18.102Z,88.40
2018-04-24T21:23:45.621Z,88.00
2018-04-24T21:26:13.114Z,88.60
2018-04-24T21:28:40.202Z,88.90
2018-04-24T21:31:07.301Z,89.50
2018-04-24T21:33:34.701Z,89.70
2018-04-24T21:36:02.542Z,90.00
2018-04-24T21:38:29.642Z,90.00
2018-04-24T21:40:56.801Z,89.90
2018-04-24T21:43:23.803Z,89.90
2018-04-24T21:45:50.842Z,90.00
2018-04-24T21:48:17.863Z,90.30
2018-04-24T21:50:44.882Z,90.20
2018-04-24T21:53:11.922Z,90.00
2018-04-24T21:55:38.902Z,90.20
2018-04-24T21:58:05.943Z,90.20
2018-04-24T22:00:33.362Z,90.30
2018-04-24T22:03:00.362Z,90.40
2018-04-24T22:05:27.403Z,90.30
2018-04-24T22:07:54.763Z,90.60
2018-04-24T22:10:21.843Z,90.30
2018-04-24T22:12:48.925Z,90.20
2018-04-24T22:15:15.922Z,90.60
2018-04-24T22:17:42.922Z,90.60
2018-04-24T22:20:09.922Z,90.20
2018-04-24T22:22:37.682Z,90.20
2018-04-24T22:25:04.802Z,90.20
2018-04-24T22:27:32.262Z,90.20
2018-04-24T22:29:59.241Z,90.00
2018-04-24T22:32:26.302Z,90.00
2018-04-24T22:34:53.322Z,90.10
2018-04-24T22:37:20.303Z,90.20
2018-04-24T22:39:47.291Z,90.70
2018-04-24T22:42:14.382Z,91.10
2018-04-24T22:44:42.082Z,91.00
2018-04-24T22:47:09.505Z,91.00
2018-04-24T22:49:36.542Z,91.40
2018-04-24T22:52:03.542Z,91.40
2018-04-24T22:54:30.922Z,91.30
2018-04-24T22:56:57.911Z,91.50
2018-04-24T22:59:25.025Z,91.40
2018-04-24T23:01:52.123Z,91.50
2018-04-24T23:04:19.216Z,91.90
2018-04-24T23:06:46.271Z,92.00
2018-04-24T23:09:13.332Z,91.80
2018-04-24T23:11:58.572Z,91.70
2018-04-24T23:14:43.612Z,91.60
2018-04-24T23:17:28.792Z,91.40
2018-04-24T23:20:13.971Z,91.90
2018-04-24T23:22:41.099Z,92.00
2018-04-24T23:25:08.232Z,91.90
2018-04-24T23:27:35.390Z,91.80
2018-04-24T23:30:02.631Z,91.70
2018-04-24T23:32:29.732Z,91.70
2018-04-24T23:34:56.791Z,91.90
2018-04-24T23:37:23.832Z,92.50
2018-04-24T23:39:51.651Z,92.00
2018-04-24T23:42:18.831Z,92.00
2018-04-24T23:44:46.251Z,91.90
2018-04-24T23:47:13.311Z,91.80
2018-04-24T23:49:40.454Z,91.20
2018-04-24T23:52:07.632Z,91.30
2018-04-24T23:54:34.693Z,91.50
2018-04-24T23:57:01.853Z,91.40
2018-04-24T23:59:28.973Z,90.90
